Time;durP1;ratioP1;P1;durP2;ratioP2;P2;SDS_P1;SDS_P2;PMS_P1;PMS_P2;Temp;Humidity;BMP_temperature;BMP_pressure;BME280_temperature;BME280_humidity;BME280_pressure;Samples;Min_cycle;Max_cycle;Signal;HPM_P1;HPM_P2
2022/02/11 00:06:08;;;;;;;;;19.00;17.00;;;;;6.47;90.87;102010.28;6313779;22;45401;-83
2022/02/11 00:08:32;;;;;;;;;14.33;14.33;;;;;6.47;90.98;102028.78;6313770;22;45358;-83
2022/02/11 00:10:57;;;;;;;;;18.00;17.67;;;;;6.45;91.08;102031.34;6287237;22;45331;-82
2022/02/11 00:13:23;;;;;;;;;19.33;16.00;;;;;6.41;91.14;102026.72;6313668;22;45368;-82
2022/02/11 00:15:52;;;;;;;;;20.00;18.00;;;;;6.39;91.09;102031.03;6286426;22;45377;-83
2022/02/11 00:18:17;;;;;;;;;15.67;13.33;;;;;6.38;90.77;102031.84;6279390;22;46839;-83
2022/02/11 00:20:49;;;;;;;;;15.67;15.00;;;;;6.41;90.87;102021.44;6282805;22;45377;-84
2022/02/11 00:23:17;;;;;;;;;16.67;15.00;;;;;6.38;90.66;102018.63;6284162;22;45736;-84
2022/02/11 00:25:52;;;;;;;;;15.33;15.33;;;;;6.44;90.73;102028.59;6282919;22;45428;-83
2022/02/11 00:33:44;;;;;;;;;17.67;14.67;;;;;6.40;90.62;102016.97;6248880;22;45323;-83
2022/02/11 00:36:12;;;;;;;;;15.00;13.67;;;;;6.48;90.43;102031.47;6249404;22;45299;-82
2022/02/11 00:46:47;;;;;;;;;17.67;16.00;;;;;6.39;89.88;102023.09;6248801;22;45460;-83
2022/02/11 01:03:03;;;;;;;;;19.67;15.33;;;;;6.41;89.32;102045.22;6248331;22;45385;-83
2022/02/11 01:05:29;;;;;;;;;14.67;12.67;;;;;6.40;89.42;102046.03;6249368;22;45308;-83
2022/02/11 01:07:54;;;;;;;;;17.33;14.00;;;;;6.35;89.46;102044.91;6241790;22;44804;-83
2022/02/11 01:10:20;;;;;;;;;16.33;16.33;;;;;6.32;89.75;102044.72;6283517;22;47155;-83
2022/02/11 01:12:47;;;;;;;;;17.00;15.00;;;;;6.34;89.88;102048.34;6280815;22;45355;-84
2022/02/11 01:15:12;;;;;;;;;18.67;15.67;;;;;6.34;89.56;102045.72;6283406;22;45344;-83
2022/02/11 01:17:49;;;;;;;;;15.00;14.33;;;;;6.37;89.27;102056.47;6283901;22;45487;-83
2022/02/11 01:20:28;;;;;;;;;13.33;11.33;;;;;6.36;89.41;102052.00;6313793;22;46324;-84
2022/02/11 01:23:16;;;;;;;;;16.00;16.00;;;;;6.36;89.09;102060.84;6285034;22;45324;-84
2022/02/11 01:25:56;;;;;;;;;15.67;14.33;;;;;6.39;89.33;102057.44;6313273;22;45637;-84
2022/02/11 01:58:20;;;;;;;;;14.33;14.00;;;;;6.32;88.83;102092.28;6289061;22;45427;-84
2022/02/11 02:03:20;;;;;;;;;13.33;11.67;;;;;6.35;88.77;102095.09;6318605;22;45629;-82
2022/02/11 02:31:25;;;;;;;;;10.00;10.00;;;;;6.34;88.54;102118.00;6317517;22;44755;-83
2022/02/11 04:55:35;;;;;;;;;14.33;11.00;;;;;5.58;88.72;102268.63;6287470;22;45328;-85
2022/02/11 05:01:43;;;;;;;;;21.67;19.67;;;;;5.60;88.51;102272.25;6290439;22;45807;-84
2022/02/11 05:04:15;;;;;;;;;14.33;11.00;;;;;5.57;89.27;102276.44;6288462;22;45491;-84
2022/02/11 05:06:40;;;;;;;;;13.67;12.00;;;;;5.56;88.89;102277.28;6289883;22;46066;-85
2022/02/11 05:09:06;;;;;;;;;16.33;15.67;;;;;5.56;88.85;102277.28;6261127;22;45740;-84
2022/02/11 05:11:31;;;;;;;;;15.33;13.00;;;;;5.62;88.30;102290.81;6289597;22;45381;-84
2022/02/11 05:13:56;;;;;;;;;11.33;10.00;;;;;5.59;88.04;102288.94;6262074;22;45196;-84
2022/02/11 05:16:22;;;;;;;;;10.67;9.00;;;;;5.53;88.45;102277.06;6262596;22;46772;-85
2022/02/11 05:18:47;;;;;;;;;11.00;9.33;;;;;5.54;88.98;102290.38;6266247;22;45389;-85
2022/02/11 05:21:13;;;;;;;;;9.33;9.33;;;;;5.57;88.88;102294.91;6287720;22;45371;-84
2022/02/11 05:23:38;;;;;;;;;13.33;9.67;;;;;5.53;88.38;102288.53;6289304;22;45334;-86
2022/02/11 05:26:04;;;;;;;;;11.00;11.00;;;;;5.57;87.99;102297.53;6286483;22;46499;-86
2022/02/11 05:28:29;;;;;;;;;10.67;9.33;;;;;5.55;88.14;102293.91;6286340;22;45353;-86
2022/02/11 05:30:54;;;;;;;;;9.00;9.00;;;;;5.60;88.55;102308.31;6286518;22;45289;-85
2022/02/11 05:33:22;;;;;;;;;14.67;11.00;;;;;5.62;88.32;102306.66;6286924;22;45422;-86
2022/02/11 05:35:48;;;;;;;;;10.00;10.00;;;;;5.60;88.46;102309.19;6286342;22;46811;-85
2022/02/11 05:38:13;;;;;;;;;14.00;12.33;;;;;5.53;88.22;102308.75;6286260;22;44898;-86
2022/02/11 05:40:40;;;;;;;;;9.67;9.67;;;;;5.59;88.42;102315.31;6287929;22;44858;-84
2022/02/11 05:43:05;;;;;;;;;14.00;10.00;;;;;5.50;88.48;102311.22;6289738;22;45314;-83
2022/02/11 05:45:32;;;;;;;;;11.00;10.67;;;;;5.54;88.51;102313.22;6292542;22;45329;-82
2022/02/11 05:47:57;;;;;;;;;12.00;12.00;;;;;5.51;88.19;102324.47;6287384;22;44863;-81
2022/02/11 05:50:23;;;;;;;;;11.00;11.00;;;;;5.43;87.81;102315.19;6287454;22;44814;-82
2022/02/11 05:52:48;;;;;;;;;15.00;14.00;;;;;5.45;88.10;102331.13;6288165;22;45608;-83
2022/02/11 05:55:14;;;;;;;;;16.33;12.33;;;;;5.40;88.22;102326.47;6285253;22;47936;-81
2022/02/11 05:57:40;;;;;;;;;10.00;10.00;;;;;5.44;88.13;102331.97;6285968;22;45841;-82
2022/02/11 06:00:07;;;;;;;;;10.00;9.67;;;;;5.36;88.18;102329.75;6262402;22;44797;-83
2022/02/11 06:02:32;;;;;;;;;13.67;13.67;;;;;5.24;88.79;102334.28;6290809;22;45475;-81
2022/02/11 06:04:57;;;;;;;;;13.33;13.33;;;;;5.19;88.40;102338.34;6287894;22;47776;-82
2022/02/11 06:07:23;;;;;;;;;9.67;9.67;;;;;5.20;88.99;102349.00;6288882;22;44767;-83
2022/02/11 06:10:25;;;;;;;;;6.67;6.67;;;;;5.30;88.62;102347.84;6287288;22;45567;-83
2022/02/11 06:12:51;;;;;;;;;16.00;10.67;;;;;5.18;88.34;102333.91;6290202;22;45448;-82
2022/02/11 06:15:16;;;;;;;;;13.67;12.33;;;;;5.18;88.41;102345.34;6285277;22;46167;-82
2022/02/11 06:17:42;;;;;;;;;10.00;9.33;;;;;5.17;88.81;102343.56;6286141;22;45328;-83
2022/02/11 06:20:08;;;;;;;;;14.00;13.33;;;;;5.14;88.33;102343.34;6313637;22;44747;-83
2022/02/11 06:22:33;;;;;;;;;17.33;17.33;;;;;5.10;89.18;102354.53;6290763;22;45489;-82
2022/02/11 06:24:59;;;;;;;;;13.67;13.67;;;;;5.10;88.56;102364.16;6319969;22;45377;-82
2022/02/11 06:27:25;;;;;;;;;17.33;14.00;;;;;5.06;88.92;102354.25;6319276;22;45314;-82
2022/02/11 06:29:51;;;;;;;;;9.00;9.00;;;;;5.05;88.99;102360.31;6291105;22;45310;-82
2022/02/11 06:32:16;;;;;;;;;12.67;11.00;;;;;5.12;88.72;102375.72;6318985;22;45193;-81
2022/02/11 06:34:42;;;;;;;;;13.33;10.00;;;;;5.09;89.19;102364.97;6321224;22;45046;-82
2022/02/11 06:37:07;;;;;;;;;11.00;10.00;;;;;5.06;89.03;102370.97;6321136;22;45237;-82
2022/02/11 06:39:33;;;;;;;;;16.67;15.67;;;;;5.04;89.54;102376.97;6321997;22;44802;-83
2022/02/11 06:41:58;;;;;;;;;18.33;11.00;;;;;5.04;88.82;102382.25;6322142;22;45373;-82
2022/02/11 06:47:46;;;;;;;;;11.00;11.00;;;;;5.09;89.69;102386.06;6322128;22;44708;-82
2022/02/11 06:50:11;;;;;;;;;17.67;14.33;;;;;5.09;88.79;102396.63;6323434;22;45430;-82
2022/02/11 06:52:37;;;;;;;;;11.67;11.67;;;;;5.07;88.93;102398.25;6323486;22;44863;-82
2022/02/11 06:55:03;;;;;;;;;12.67;12.33;;;;;5.09;89.30;102392.28;6294243;22;46880;-82
2022/02/11 06:57:30;;;;;;;;;15.67;12.33;;;;;5.08;88.58;102384.25;6293918;22;45766;-82
2022/02/11 06:59:55;;;;;;;;;16.33;15.00;;;;;5.05;89.32;102386.69;6291428;22;45349;-83
2022/02/11 07:02:22;;;;;;;;;14.00;13.00;;;;;5.13;89.24;102414.44;6319594;22;45316;-82
2022/02/11 07:04:49;;;;;;;;;18.00;14.00;;;;;5.13;88.88;102419.72;6291849;22;46635;-82
2022/02/11 07:07:14;;;;;;;;;13.67;13.33;;;;;5.13;88.86;102419.72;6294022;22;45391;-82
2022/02/11 07:09:41;;;;;;;;;13.00;13.00;;;;;5.18;88.78;102428.84;6293724;22;45374;-82
2022/02/11 07:12:07;;;;;;;;;10.00;10.00;;;;;5.19;89.55;102436.88;6294064;22;44797;-82
2022/02/11 07:14:32;;;;;;;;;12.00;11.00;;;;;5.19;89.32;102436.88;6293382;22;47154;-83
2022/02/11 07:16:59;;;;;;;;;15.67;13.33;;;;;5.29;88.93;102454.19;6291855;22;45313;-83
2022/02/11 07:19:24;;;;;;;;;12.33;11.00;;;;;5.29;88.90;102448.91;6319375;22;45417;-82
2022/02/11 07:21:49;;;;;;;;;18.67;12.33;;;;;5.25;89.00;102439.00;6292929;22;44807;-83
2022/02/11 07:24:16;;;;;;;;;13.33;13.33;;;;;5.38;88.36;102464.41;6293708;22;46995;-83
2022/02/11 07:26:41;;;;;;;;;21.67;17.00;;;;;5.40;88.54;102468.94;6293277;22;45422;-83
2022/02/11 07:29:06;;;;;;;;;15.67;14.00;;;;;5.51;88.80;102479.25;6319995;22;45768;-83
2022/02/11 07:31:32;;;;;;;;;10.00;10.00;;;;;5.56;88.18;102480.47;6294091;22;45290;-84
2022/02/11 07:33:57;;;;;;;;;14.00;10.00;;;;;5.57;88.16;102477.00;6319728;22;45509;-83
2022/02/11 07:36:23;;;;;;;;;13.67;13.67;;;;;5.61;87.88;102479.03;6319839;22;45327;-83
2022/02/11 07:38:50;;;;;;;;;14.67;13.67;;;;;5.64;87.98;102489.78;6294595;22;45386;-82
2022/02/11 07:41:17;;;;;;;;;16.67;14.00;;;;;5.68;88.48;102506.72;6320102;22;45584;-83
2022/02/11 07:43:42;;;;;;;;;13.33;12.67;;;;;5.70;88.17;102495.44;6321157;22;45275;-82
2022/02/11 07:46:09;;;;;;;;;11.67;9.33;;;;;5.71;87.86;102504.25;6294292;22;45358;-82
2022/02/11 07:48:34;;;;;;;;;12.67;12.67;;;;;5.77;87.50;102497.63;6291757;22;45461;-84
2022/02/11 07:51:01;;;;;;;;;14.00;13.00;;;;;5.74;87.15;102492.19;6294399;22;45461;-82
2022/02/11 07:53:26;;;;;;;;;14.67;12.00;;;;;5.86;87.49;102517.50;6294810;22;47148;-83
2022/02/11 07:55:52;;;;;;;;;11.33;11.33;;;;;5.82;87.24;102509.41;6322005;22;45356;-85
2022/02/11 07:58:20;;;;;;;;;11.00;11.00;;;;;5.93;87.33;102527.63;6291780;22;45267;-83
2022/02/11 08:00:47;;;;;;;;;17.33;14.33;;;;;5.99;86.68;102530.69;6325063;22;44767;-83
2022/02/11 08:03:12;;;;;;;;;20.33;13.00;;;;;5.97;86.86;102534.97;6323354;22;45344;-82
2022/02/11 08:05:38;;;;;;;;;7.67;6.67;;;;;5.96;86.69;102527.88;6319985;22;44772;-83
2022/02/11 08:08:03;;;;;;;;;11.67;11.33;;;;;5.98;86.65;102528.88;6295231;22;45495;-82
2022/02/11 08:10:29;;;;;;;;;12.00;10.67;;;;;5.97;86.54;102524.41;6297486;22;45969;-84
2022/02/11 08:12:57;;;;;;;;;10.67;10.00;;;;;6.00;86.34;102529.88;6298859;22;47661;-82
2022/02/11 08:15:23;;;;;;;;;9.67;9.67;;;;;6.02;86.72;102546.75;6296519;22;45527;-82
2022/02/11 08:17:48;;;;;;;;;9.67;9.33;;;;;5.99;86.63;102546.53;6321320;22;44824;-82
2022/02/11 08:20:15;;;;;;;;;9.00;9.00;;;;;6.07;86.18;102563.75;6289472;22;45179;-82
2022/02/11 08:22:40;;;;;;;;;10.67;10.67;;;;;6.08;86.53;102564.66;6289452;22;46545;-84
2022/02/11 08:25:09;;;;;;;;;11.00;11.00;;;;;6.01;86.30;102559.00;6294717;22;44649;-83
2022/02/11 08:27:34;;;;;;;;;16.33;13.67;;;;;6.08;86.07;102570.88;6292527;22;45388;-83
2022/02/11 08:30:00;;;;;;;;;12.33;10.00;;;;;6.11;86.33;102575.44;6295906;22;44705;-82
2022/02/11 08:32:29;;;;;;;;;13.33;9.67;;;;;6.11;85.48;102578.97;6294500;22;46762;-83
2022/02/11 08:35:01;;;;;;;;;11.00;11.00;;;;;6.16;86.04;102579.25;6294209;22;44834;-84
2022/02/11 08:37:36;;;;;;;;;14.00;12.33;;;;;6.08;86.08;102562.97;6294676;22;44760;-86
2022/02/11 08:46:45;;;;;;;;;9.67;7.67;;;;;6.45;85.62;102583.69;6289674;22;45328;-82
2022/02/11 08:49:11;;;;;;;;;15.00;11.67;;;;;6.51;85.75;102586.69;6288437;22;44777;-82
2022/02/11 08:51:39;;;;;;;;;13.67;13.00;;;;;6.51;85.67;102576.13;6287288;22;45407;-85
2022/02/11 08:54:07;;;;;;;;;17.67;15.00;;;;;6.59;85.80;102588.06;6289611;22;45696;-83
2022/02/11 08:57:29;;;;;;;;;21.00;15.00;;;;;6.79;85.56;102596.28;6287452;22;45639;-82
2022/02/11 08:59:55;;;;;;;;;11.33;11.33;;;;;6.63;85.03;102565.38;6291818;22;45403;-84
2022/02/11 09:02:23;;;;;;;;;15.33;11.00;;;;;6.88;84.75;102601.19;6293570;22;44832;-84
2022/02/11 09:04:51;;;;;;;;;13.67;11.00;;;;;6.77;84.96;102590.00;6290561;22;46598;-84
2022/02/11 09:07:18;;;;;;;;;17.33;15.67;;;;;6.82;84.73;102594.72;6269480;22;44757;-83
2022/02/11 09:16:30;;;;;;;;;17.00;15.33;;;;;7.11;85.00;102629.94;6294229;22;45341;-84
2022/02/11 09:18:57;;;;;;;;;12.33;11.67;;;;;7.12;84.25;102634.38;6296839;22;44749;-84
2022/02/11 09:21:29;;;;;;;;;15.67;14.67;;;;;6.92;84.61;102605.84;6297474;22;45423;-86
2022/02/11 09:24:15;;;;;;;;;11.67;10.67;;;;;6.79;84.35;102599.84;6322853;22;45661;-85
2022/02/11 09:26:40;;;;;;;;;11.67;11.67;;;;;6.95;83.94;102643.97;6296456;22;45252;-82
2022/02/11 09:29:08;;;;;;;;;18.33;15.00;;;;;6.89;84.57;102648.91;6295213;22;45220;-84
2022/02/11 09:31:36;;;;;;;;;11.33;11.33;;;;;6.70;84.42;102616.88;6324067;22;45405;-85
2022/02/11 09:34:06;;;;;;;;;15.00;12.00;;;;;6.68;84.53;102611.50;6297772;22;44875;-84
2022/02/11 09:36:34;;;;;;;;;14.67;14.00;;;;;6.87;84.74;102634.69;6324086;22;45722;-85
2022/02/11 09:39:04;;;;;;;;;14.33;11.00;;;;;7.03;84.55;102651.44;6298131;22;45061;-84
2022/02/11 09:44:53;;;;;;;;;11.00;11.00;;;;;7.02;84.11;102645.25;6326269;22;45786;-85
2022/02/11 09:47:20;;;;;;;;;8.67;8.67;;;;;7.00;84.33;102654.81;6298695;22;46686;-84
2022/02/11 09:49:47;;;;;;;;;12.33;11.00;;;;;6.97;84.49;102662.59;6326410;22;44727;-84
2022/02/11 09:52:14;;;;;;;;;17.67;15.00;;;;;6.93;84.53;102661.50;6297083;22;44886;-85
2022/02/11 09:54:43;;;;;;;;;9.67;9.67;;;;;6.97;84.49;102652.91;6297689;22;44754;-84
2022/02/11 09:57:10;;;;;;;;;10.33;10.00;;;;;7.03;84.02;102665.59;6298215;22;46921;-83
2022/02/11 09:59:37;;;;;;;;;19.00;15.67;;;;;7.10;84.53;102664.22;6296016;22;45354;-83
2022/02/11 10:02:06;;;;;;;;;11.00;11.00;;;;;7.19;84.20;102663.03;6268938;22;45385;-83
2022/02/11 10:04:32;;;;;;;;;13.67;12.00;;;;;7.23;84.18;102674.72;6322437;22;44839;-80
2022/02/11 10:06:59;;;;;;;;;23.67;21.33;;;;;7.29;84.00;102676.78;6292085;22;48378;-84
2022/02/11 10:09:38;;;;;;;;;;;;;;;;;;;;;
2022/02/11 10:12:31;;;;;;;;;15.67;15.67;;;;;7.34;83.56;102664.75;6318917;22;67462;-82
2022/02/11 10:14:57;;;;;;;;;45.67;37.67;;;;;7.35;84.23;102682.44;6197995;23;44934;-85
2022/02/11 10:17:41;;;;;;;;;14.33;12.00;;;;;7.38;84.12;102667.66;6198406;22;45132;-85
2022/02/11 10:20:12;;;;;;;;;33.67;28.00;;;;;7.51;84.21;102693.09;6170283;23;45476;-82
2022/02/11 10:23:20;;;;;;;;;21.67;19.00;;;;;7.34;84.21;102633.91;6197272;23;45437;-83
2022/02/11 10:26:17;;;;;;;;;14.00;11.00;;;;;7.76;83.39;102691.88;6160409;23;45822;-83
2022/02/11 10:29:04;;;;;;;;;12.33;12.33;;;;;7.53;83.40;102646.44;6196536;23;45109;-83
2022/02/11 10:31:35;;;;;;;;;17.67;15.00;;;;;7.79;83.36;102703.53;6195903;22;45611;-84
2022/02/11 10:34:31;;;;;;;;;15.33;15.00;;;;;7.63;83.09;102662.88;6195374;23;44798;-83
2022/02/11 10:37:07;;;;;;;;;16.67;15.33;;;;;7.90;83.20;102708.56;6196856;23;45215;-85
2022/02/11 10:39:36;;;;;;;;;19.00;16.33;;;;;7.89;82.79;102699.69;6194184;23;45021;-84
2022/02/11 10:42:07;;;;;;;;;16.33;15.33;;;;;7.91;83.21;102702.41;6173585;23;45422;-85
2022/02/11 10:45:25;;;;;;;;;22.00;17.00;;;;;7.99;83.14;102707.31;6195927;23;45364;-84
2022/02/11 10:48:20;;;;;;;;;14.33;12.00;;;;;8.00;82.39;102708.25;6199591;22;44817;-86
2022/02/11 10:50:58;;;;;;;;;16.33;16.33;;;;;7.97;82.77;102713.38;6205721;22;45278;-85
2022/02/11 10:53:32;;;;;;;;;15.00;15.00;;;;;7.70;82.74;102665.94;6290529;22;44775;-85
2022/02/11 10:56:08;;;;;;;;;13.33;13.33;;;;;7.96;83.05;102690.34;6292229;22;45362;-87
2022/02/11 11:20:38;;;;;;;;;14.67;11.00;;;;;8.31;79.42;102696.69;6265898;22;46854;-84
2022/02/11 11:23:47;;;;;;;;;;;;;;;;;;;;;
2022/02/11 11:27:01;;;;;;;;;;;;;;;;;;;;;
2022/02/11 11:29:46;;;;;;;;;11.00;10.33;;;;;8.23;79.96;102668.84;6140105;23;45302;-86
2022/02/11 11:49:40;;;;;;;;;17.00;16.33;;;;;9.14;78.50;102661.28;6300806;22;46435;-87
2022/02/11 11:53:04;;;;;;;;;15.00;13.00;;;;;9.59;77.75;102702.53;6326856;22;46924;-87
2022/02/11 11:59:13;;;;;;;;;15.33;13.67;;;;;9.88;75.93;102695.06;6273614;22;46871;-88
2022/02/11 12:08:11;;;;;;;;;7.33;7.33;;;;;9.92;75.52;102677.53;6252105;22;47060;-85
2022/02/11 12:10:37;;;;;;;;;7.00;7.00;;;;;9.89;74.48;102685.34;6323079;22;44714;-84
2022/02/11 12:13:05;;;;;;;;;8.67;8.67;;;;;9.81;75.05;102684.97;6324979;22;45365;-85
2022/02/11 12:15:34;;;;;;;;;8.33;8.33;;;;;9.78;74.84;102691.06;6350198;22;46576;-84
2022/02/11 12:31:17;;;;;;;;;13.00;9.33;;;;;10.33;75.34;102638.69;6263051;22;44772;-86
2022/02/11 12:45:00;;;;;;;;;8.33;8.00;;;;;10.29;68.14;102647.34;6260025;22;45000;-85
2022/02/11 12:47:55;;;;;;;;;6.67;6.67;;;;;10.30;68.89;102643.84;6266494;22;45276;-85
2022/02/11 12:50:39;;;;;;;;;8.33;7.67;;;;;10.00;67.46;102610.59;6258524;22;45352;-85
2022/02/11 12:53:20;;;;;;;;;6.33;4.67;;;;;10.00;68.15;102612.34;6265194;22;44736;-86
2022/02/11 12:55:56;;;;;;;;;8.00;7.00;;;;;10.05;68.88;102656.00;6228075;22;45365;-82
2022/02/11 12:58:22;;;;;;;;;9.00;7.33;;;;;9.70;68.03;102628.66;6204153;22;45634;-83
2022/02/11 13:00:50;;;;;;;;;8.00;6.00;;;;;9.88;68.16;102659.63;6230053;22;46727;-86
2022/02/11 13:03:19;;;;;;;;;4.00;3.67;;;;;9.82;68.79;102660.22;6180747;22;44817;-86
2022/02/11 13:06:05;;;;;;;;;;;;;;;;;;;;;
2022/02/11 13:08:32;;;;;;;;;6.00;5.33;;;;;9.84;67.18;102654.97;6174621;23;65192;-86
2022/02/11 13:11:14;;;;;;;;;6.00;4.00;;;;;9.98;67.60;102651.25;6149886;23;46848;-85
2022/02/11 13:14:13;;;;;;;;;7.67;5.67;;;;;10.00;67.33;102644.25;6199763;23;45332;-88
2022/02/11 13:16:39;;;;;;;;;3.00;3.00;;;;;10.13;64.57;102664.34;6165890;23;45444;-87
2022/02/11 13:28:59;;;;;;;;;6.00;4.00;;;;;10.05;65.51;102632.06;6168202;23;45310;-85
2022/02/11 13:31:46;;;;;;;;;3.00;1.00;;;;;10.20;66.30;102654.06;6171670;23;44776;-85
2022/02/11 13:37:51;;;;;;;;;;;;;;;;;;;;;
2022/02/11 13:44:33;;;;;;;;;7.67;7.00;;;;;9.94;65.84;102634.22;6128527;23;44916;-87
2022/02/11 13:47:12;;;;;;;;;;;;;;;;;;;;;
2022/02/11 14:04:34;;;;;;;;;3.00;3.00;;;;;10.46;63.18;102633.06;6287456;22;46799;-86
2022/02/11 14:07:43;;;;;;;;;;;;;;;;;;;;;
2022/02/11 14:10:28;;;;;;;;;4.00;4.00;;;;;10.54;61.88;102585.53;6256636;22;74050;-86
2022/02/11 14:13:07;;;;;;;;;5.33;5.33;;;;;10.70;60.10;102603.09;6233422;22;45603;-88
2022/02/11 14:16:00;;;;;;;;;3.67;3.67;;;;;10.62;60.91;102592.09;6236405;22;45369;-87
2022/02/11 14:18:28;;;;;;;;;4.00;4.00;;;;;10.67;62.58;102584.34;6234847;22;44821;-85
2022/02/11 14:21:10;;;;;;;;;3.33;3.33;;;;;10.78;58.85;102596.34;6239713;22;47126;-85
2022/02/11 14:23:39;;;;;;;;;6.00;6.00;;;;;10.84;60.70;102607.25;6266011;22;44887;-85
2022/02/11 14:26:06;;;;;;;;;5.67;5.67;;;;;10.95;61.95;102613.03;6215664;22;44942;-85
2022/02/11 14:28:40;;;;;;;;;6.33;4.33;;;;;10.96;61.04;102606.88;6263700;22;45283;-85
2022/02/11 14:33:55;;;;;;;;;7.50;7.00;;;;;10.96;62.06;102586.47;6297108;22;45727;-86
2022/02/11 14:36:43;;;;;;;;;;;;;;;;;;;;;
2022/02/11 14:40:03;;;;;;;;;;;;;;;;;;;;;
2022/02/11 14:42:18;;;;;;;;;4.33;4.33;;;;;11.10;56.21;102626.09;6287232;22;44986;-83
2022/02/11 14:55:04;;;;;;;;;;;;;;;;;;;;;
2022/02/11 15:12:10;;;;;;;;;7.00;5.00;;;;;10.47;60.61;102584.38;5909914;24;44845;-85
2022/02/11 15:14:42;;;;;;;;;5.00;5.00;;;;;10.63;60.25;102632.94;5830156;24;44862;-85
2022/02/11 15:17:52;;;;;;;;;8.33;8.00;;;;;10.69;60.13;102622.56;5826913;24;45365;-85
2022/02/11 15:23:20;;;;;;;;;7.00;6.33;;;;;10.77;61.00;102598.09;5797516;24;44868;-84
2022/02/11 15:25:54;;;;;;;;;11.33;8.00;;;;;11.04;60.50;102623.16;5798317;24;45367;-85
2022/02/11 15:28:32;;;;;;;;;7.33;6.00;;;;;10.88;59.30;102577.25;5802416;24;45308;-83
2022/02/11 15:31:19;;;;;;;;;7.00;7.00;;;;;10.77;60.04;102566.16;5814308;24;46921;-84
2022/02/11 15:33:57;;;;;;;;;7.00;6.00;;;;;10.91;59.13;102574.72;6007253;23;45501;-84
2022/02/11 15:40:08;;;;;;;;;;;;;;;;;;;;;
2022/02/11 15:42:35;;;;;;;;;6.33;4.00;;;;;10.90;59.38;102586.22;6077437;23;75481;-82
2022/02/11 15:48:13;;;;;;;;;4.33;4.33;;;;;10.97;58.72;102584.75;6070605;23;45437;-86
2022/02/11 15:50:45;;;;;;;;;6.33;6.33;;;;;10.82;59.24;102577.88;6166391;23;45778;-85
2022/02/11 15:53:13;;;;;;;;;8.00;7.00;;;;;10.59;59.67;102542.34;6169948;23;44981;-85
2022/02/11 15:55:39;;;;;;;;;4.00;4.00;;;;;10.78;59.77;102586.59;6170801;23;45399;-86
2022/02/11 15:58:08;;;;;;;;;7.67;7.00;;;;;10.57;57.05;102554.66;6230106;22;45298;-86
2022/02/11 16:00:38;;;;;;;;;6.33;6.33;;;;;10.46;59.72;102566.56;6234900;22;45361;-85
2022/02/11 16:03:12;;;;;;;;;7.67;7.33;;;;;10.57;59.60;102586.59;6233234;22;46993;-86
2022/02/11 16:05:41;;;;;;;;;8.00;7.33;;;;;10.50;59.94;102586.25;6230438;22;44860;-85
2022/02/11 16:08:10;;;;;;;;;2.00;2.00;;;;;10.48;60.07;102586.16;6209957;22;44820;-87
2022/02/11 16:20:41;;;;;;;;;8.33;7.00;;;;;9.99;60.50;102576.88;6198940;22;45164;-87
2022/02/11 16:23:11;;;;;;;;;6.67;6.67;;;;;9.84;59.85;102562.88;6197775;22;45473;-83
2022/02/11 16:25:46;;;;;;;;;7.00;4.00;;;;;9.67;60.17;102540.81;6196083;22;45473;-87
2022/02/11 16:28:21;;;;;;;;;3.00;3.00;;;;;9.74;59.34;102571.28;6172855;23;45504;-84
2022/02/11 16:30:53;;;;;;;;;5.33;4.00;;;;;9.67;60.63;102579.78;6197329;22;44787;-86
2022/02/11 16:33:36;;;;;;;;;6.67;5.67;;;;;9.57;60.60;102567.78;6179705;22;45291;-85
2022/02/11 16:36:36;;;;;;;;;8.00;4.00;;;;;9.66;60.41;102591.25;6261691;22;45159;-86
2022/02/11 16:47:07;;;;;;;;;8.00;4.67;;;;;9.36;61.91;102567.69;6317447;22;46871;-82
2022/02/11 16:49:39;;;;;;;;;4.00;4.00;;;;;9.23;61.87;102554.66;6345025;22;45352;-85
2022/02/11 16:52:08;;;;;;;;;8.33;8.33;;;;;9.34;61.49;102585.31;6346000;22;45466;-87
2022/02/11 16:54:50;;;;;;;;;6.67;6.00;;;;;9.26;62.51;102579.59;6320167;22;45180;-84
2022/02/11 16:57:23;;;;;;;;;6.33;5.67;;;;;9.06;62.18;102551.19;6320955;22;45252;-83
2022/02/11 17:00:11;;;;;;;;;7.00;7.00;;;;;9.28;62.59;102607.13;6320331;22;45423;-85
2022/02/11 17:02:43;;;;;;;;;6.50;6.50;;;;;9.17;62.49;102589.75;6321394;22;45431;-86
2022/02/11 17:05:21;;;;;;;;;6.33;6.00;;;;;9.03;63.28;102573.19;6321415;22;45441;-85
2022/02/11 17:08:01;;;;;;;;;7.00;7.00;;;;;9.16;63.19;102607.44;6323649;22;45378;-86
2022/02/11 17:10:41;;;;;;;;;6.00;6.00;;;;;9.13;63.36;102611.69;6348409;22;45151;-84
2022/02/11 17:13:17;;;;;;;;;4.67;4.67;;;;;9.09;63.54;102618.59;6323206;22;44785;-85
2022/02/11 17:16:05;;;;;;;;;4.00;4.00;;;;;8.94;63.38;102589.53;6322803;22;45290;-85
2022/02/11 17:18:32;;;;;;;;;7.00;7.00;;;;;8.76;63.32;102562.06;6319661;22;45607;-86
2022/02/11 17:20:58;;;;;;;;;4.67;4.67;;;;;8.92;63.44;102600.91;6320831;22;45595;-84
2022/02/11 17:23:24;;;;;;;;;7.67;7.67;;;;;8.84;63.01;102589.00;6346636;22;45340;-84
2022/02/11 17:25:53;;;;;;;;;6.00;6.00;;;;;8.87;63.27;102603.34;6319529;22;45479;-83
2022/02/11 17:28:29;;;;;;;;;5.33;3.33;;;;;8.90;63.23;102611.44;6321053;22;45389;-83
2022/02/11 17:30:58;;;;;;;;;6.00;4.00;;;;;8.81;63.86;102597.72;6319858;22;45352;-84
2022/02/11 17:33:26;;;;;;;;;12.33;11.67;;;;;8.89;63.71;102614.94;6322641;22;45344;-84
2022/02/11 17:36:01;;;;;;;;;8.33;8.00;;;;;8.70;63.59;102583.88;6323397;22;44890;-84
2022/02/11 17:38:42;;;;;;;;;8.00;8.00;;;;;8.81;63.93;102608.34;6321546;22;45385;-84
2022/02/11 17:41:13;;;;;;;;;14.33;10.00;;;;;8.87;63.47;102623.66;6323935;22;44911;-84
2022/02/11 17:43:45;;;;;;;;;9.00;9.00;;;;;8.78;63.78;102618.78;6323705;22;44747;-84
2022/02/11 17:46:11;;;;;;;;;13.67;9.67;;;;;8.74;63.91;102611.47;6308962;22;45474;-84
2022/02/11 17:48:37;;;;;;;;;10.33;5.67;;;;;8.76;64.52;102616.03;6293322;22;45329;-84
2022/02/11 17:51:12;;;;;;;;;13.00;12.00;;;;;8.76;64.44;102612.47;6293089;22;45432;-85
2022/02/11 17:53:38;;;;;;;;;9.00;9.00;;;;;8.72;64.53;102613.16;6294666;22;45310;-84
2022/02/11 17:56:07;;;;;;;;;12.33;11.00;;;;;8.65;64.83;102616.34;6266202;22;45334;-83
2022/02/11 17:58:35;;;;;;;;;13.00;11.67;;;;;8.54;65.28;102602.50;6293422;22;45091;-85
2022/02/11 18:04:37;;;;;;;;;12.33;8.33;;;;;8.58;64.84;102617.72;6294645;22;44853;-85
2022/02/11 18:07:03;;;;;;;;;9.67;8.33;;;;;8.37;64.80;102601.59;6290030;22;45227;-85
2022/02/11 18:09:37;;;;;;;;;13.33;8.00;;;;;8.49;63.95;102623.47;6284920;22;46272;-85
2022/02/11 18:12:03;;;;;;;;;10.33;8.33;;;;;8.39;64.55;102615.81;6322275;22;44646;-84
2022/02/11 18:14:28;;;;;;;;;11.67;11.67;;;;;8.41;64.78;102622.16;6322453;22;44696;-84
2022/02/11 18:16:56;;;;;;;;;16.00;13.00;;;;;8.54;65.16;102632.59;6324709;22;45305;-84
2022/02/11 18:19:22;;;;;;;;;10.33;9.33;;;;;8.54;64.20;102634.31;6321448;22;46002;-84
2022/02/11 18:21:48;;;;;;;;;8.33;8.33;;;;;8.55;64.22;102631.75;6321950;22;45725;-85
2022/02/11 18:24:29;;;;;;;;;11.67;9.67;;;;;8.65;64.17;102637.56;6323775;22;44920;-85
2022/02/11 18:26:54;;;;;;;;;11.33;8.00;;;;;8.60;64.53;102640.88;6323387;22;44690;-84
2022/02/11 18:29:22;;;;;;;;;12.00;12.00;;;;;8.65;64.19;102627.84;6321352;22;47751;-85
2022/02/11 18:31:48;;;;;;;;;13.00;9.67;;;;;8.58;64.32;102623.03;6320463;22;45399;-85
2022/02/11 18:34:13;;;;;;;;;11.67;11.00;;;;;8.54;63.61;102616.69;6319492;22;45264;-84
2022/02/11 18:36:39;;;;;;;;;14.00;12.33;;;;;8.55;63.91;102625.53;6317468;22;45447;-84
2022/02/11 18:39:10;;;;;;;;;12.67;11.00;;;;;8.51;63.33;102621.81;6315708;22;45359;-85
2022/02/11 18:41:38;;;;;;;;;7.00;7.00;;;;;8.49;63.21;102628.78;6315567;22;45472;-83
2022/02/11 18:44:04;;;;;;;;;12.00;10.33;;;;;8.40;63.96;102622.94;6317629;22;45246;-84
2022/02/11 18:46:33;;;;;;;;;11.33;11.33;;;;;8.36;63.83;102613.94;6319695;22;45322;-86
2022/02/11 18:49:04;;;;;;;;;8.67;6.33;;;;;8.23;63.19;102615.84;6319997;22;45057;-85
2022/02/11 18:51:44;;;;;;;;;12.33;11.00;;;;;8.21;63.40;102614.00;6321196;22;45381;-85
2022/02/11 18:54:14;;;;;;;;;10.00;8.33;;;;;8.15;63.78;102602.19;6323322;22;45277;-85
2022/02/11 18:56:40;;;;;;;;;13.67;11.67;;;;;8.16;64.06;102610.22;6321755;22;45413;-85
2022/02/11 19:01:54;;;;;;;;;7.33;6.00;;;;;8.07;63.76;102609.69;6320180;22;45297;-85